Airfield :







YOU CAN JOIN US ON...

 
LOGIN :

Register | Disclaimer

   EN    FR    IT 

 









Legend :    VFR   Marginal VFR   IFR   Intensive IFR   Very Intensive IFR
Visi :
Ceiling :
>= 8 km
>= 3000ft
5 to 8 km
1000 to 3000 ft
1500m to 5 km
500 to 1000 ft
800 to 1500m
200 to 500 ft
< 800m
< 200 ft
Symbols :   Thunderstorms  Fog  Heavy snow  Heavy precipitations  Wind > 20 kt






- Airport Elevation : 117 ft
- IATA code : KUS


BGKK - Kulusuk

CURRENT METAR :
  • 291150Z 08024G34KT 2000 -SN DRSN OVC010 M02/M04 Q0992

EXPIRED METARs :
  • 291050Z 08023KT 3000 FZRASN DRSN OVC020 M02/M04 Q0992
  • 290950Z AUTO 07027G37KT 3200NDV -FZRA BKN017/// M01/M04 Q0992

TAF TAF BGKK
Valid from the 29 at 12:00 until the 29 at 20:00 UTC


291131Z 2912/2920 08022KT 8000 -SNRA BKN040
TEMPO 2912/2920 06028G42KT 2000 SNRA DRSN BKN020



MET'MAP, your aeronautical weather chart ! - Copyright ORBIFLY December 2007 - Disclaimer

ORBIFLY MET'MAP TEAM :

Programming & Development : Alexandra Zaïnal
Concept & original design : Baudouin d'Aumeries
Assistance for programming : Marc-Olivier Méhu
Technical & hardware support : Manuel Goepfert

Contact : metmap@orbifly.com




SOURCES & CREDITS :

   NOAA